sensor_id;sensor_type;location;lat;lon;timestamp;pressure;altitude;pressure_sealevel;temperature;humidity
34674;BME280;20879;55.668;37.858;2023-04-06T00:02:19;100452.06;;;3.62;89.97
34674;BME280;20879;55.668;37.858;2023-04-06T00:04:49;100461.31;;;3.57;90.15
34674;BME280;20879;55.668;37.858;2023-04-06T00:07:18;100433.69;;;3.44;90.94
34674;BME280;20879;55.668;37.858;2023-04-06T00:09:53;100445.50;;;3.39;91.26
34674;BME280;20879;55.668;37.858;2023-04-06T00:12:22;100458.66;;;3.53;90.58
34674;BME280;20879;55.668;37.858;2023-04-06T00:14:52;100437.72;;;3.34;90.91
34674;BME280;20879;55.668;37.858;2023-04-06T00:17:24;100448.34;;;3.49;90.87
34674;BME280;20879;55.668;37.858;2023-04-06T00:19:53;100455.19;;;3.50;90.01
34674;BME280;20879;55.668;37.858;2023-04-06T00:22:22;100432.59;;;3.34;90.75
34674;BME280;20879;55.668;37.858;2023-04-06T00:24:52;100437.38;;;3.22;90.53
34674;BME280;20879;55.668;37.858;2023-04-06T00:27:26;100454.78;;;3.35;90.55
34674;BME280;20879;55.668;37.858;2023-04-06T00:29:56;100427.13;;;3.20;91.32
34674;BME280;20879;55.668;37.858;2023-04-06T00:32:27;100457.28;;;3.32;91.53
34674;BME280;20879;55.668;37.858;2023-04-06T00:34:58;100456.53;;;3.36;90.96
34674;BME280;20879;55.668;37.858;2023-04-06T00:37:27;100467.44;;;3.29;91.85
34674;BME280;20879;55.668;37.858;2023-04-06T00:39:57;100457.63;;;3.12;92.65
34674;BME280;20879;55.668;37.858;2023-04-06T00:42:27;100457.03;;;3.23;92.59
34674;BME280;20879;55.668;37.858;2023-04-06T00:44:58;100455.09;;;3.14;93.17
34674;BME280;20879;55.668;37.858;2023-04-06T00:47:33;100460.31;;;3.17;92.40
34674;BME280;20879;55.668;37.858;2023-04-06T00:50:03;100456.31;;;3.27;92.24
34674;BME280;20879;55.668;37.858;2023-04-06T00:52:33;100449.59;;;3.32;91.47
34674;BME280;20879;55.668;37.858;2023-04-06T00:55:09;100434.91;;;3.25;92.08
34674;BME280;20879;55.668;37.858;2023-04-06T00:57:42;100462.28;;;3.27;92.09
34674;BME280;20879;55.668;37.858;2023-04-06T01:00:13;100452.59;;;3.15;91.74
34674;BME280;20879;55.668;37.858;2023-04-06T01:02:47;100451.84;;;3.20;92.20
34674;BME280;20879;55.668;37.858;2023-04-06T01:05:20;100447.78;;;3.28;91.92
34674;BME280;20879;55.668;37.858;2023-04-06T01:07:53;100445.00;;;3.19;92.30
34674;BME280;20879;55.668;37.858;2023-04-06T01:10:28;100442.28;;;3.12;92.73
34674;BME280;20879;55.668;37.858;2023-04-06T01:13:10;100433.41;;;3.00;92.14
34674;BME280;20879;55.668;37.858;2023-04-06T01:15:53;100460.31;;;3.17;92.27
34674;BME280;20879;55.668;37.858;2023-04-06T01:18:47;100437.06;;;3.09;91.94
34674;BME280;20879;55.668;37.858;2023-04-06T01:21:32;100437.91;;;3.08;92.26
34674;BME280;20879;55.668;37.858;2023-04-06T01:24:29;100460.22;;;3.14;91.78
34674;BME280;20879;55.668;37.858;2023-04-06T01:27:12;100431.06;;;3.09;92.49
34674;BME280;20879;55.668;37.858;2023-04-06T01:29:56;100450.53;;;3.02;92.50
34674;BME280;20879;55.668;37.858;2023-04-06T01:32:54;100431.63;;;2.97;93.02
34674;BME280;20879;55.668;37.858;2023-04-06T01:35:47;100466.84;;;3.07;92.28
34674;BME280;20879;55.668;37.858;2023-04-06T01:38:22;100464.00;;;2.96;93.11
34674;BME280;20879;55.668;37.858;2023-04-06T01:41:00;100414.72;;;2.72;92.72
34674;BME280;20879;55.668;37.858;2023-04-06T01:43:37;100440.75;;;2.87;93.12
34674;BME280;20879;55.668;37.858;2023-04-06T01:46:09;100459.63;;;2.92;92.76
34674;BME280;20879;55.668;37.858;2023-04-06T01:48:42;100376.78;;;2.55;93.23
34674;BME280;20879;55.668;37.858;2023-04-06T01:51:18;100439.25;;;2.95;92.84
34674;BME280;20879;55.668;37.858;2023-04-06T01:54:01;100445.81;;;2.86;92.55
34674;BME280;20879;55.668;37.858;2023-04-06T01:57:01;100433.34;;;2.98;92.23
34674;BME280;20879;55.668;37.858;2023-04-06T01:59:45;100425.94;;;2.75;92.09
34674;BME280;20879;55.668;37.858;2023-04-06T02:02:40;100421.28;;;2.62;92.75
34674;BME280;20879;55.668;37.858;2023-04-06T02:05:21;100458.66;;;2.87;92.25
34674;BME280;20879;55.668;37.858;2023-04-06T02:07:52;100433.59;;;2.75;92.26
34674;BME280;20879;55.668;37.858;2023-04-06T02:10:34;100471.41;;;2.86;92.41
34674;BME280;20879;55.668;37.858;2023-04-06T02:13:14;100450.38;;;2.66;92.78
34674;BME280;20879;55.668;37.858;2023-04-06T02:15:48;100460.75;;;2.72;93.10
34674;BME280;20879;55.668;37.858;2023-04-06T02:18:17;100463.66;;;2.83;92.41
34674;BME280;20879;55.668;37.858;2023-04-06T02:20:53;100463.31;;;2.72;92.99
34674;BME280;20879;55.668;37.858;2023-04-06T02:23:23;100437.28;;;2.55;92.75
34674;BME280;20879;55.668;37.858;2023-04-06T02:25:53;100457.91;;;2.61;93.75
34674;BME280;20879;55.668;37.858;2023-04-06T02:28:24;100474.06;;;2.60;93.87
34674;BME280;20879;55.668;37.858;2023-04-06T02:30:54;100473.13;;;2.56;94.08
34674;BME280;20879;55.668;37.858;2023-04-06T02:33:26;100480.84;;;2.58;93.94
34674;BME280;20879;55.668;37.858;2023-04-06T02:35:58;100473.16;;;2.58;94.04
34674;BME280;20879;55.668;37.858;2023-04-06T02:38:38;100464.47;;;2.53;94.22
34674;BME280;20879;55.668;37.858;2023-04-06T02:41:07;100456.63;;;2.47;94.37
34674;BME280;20879;55.668;37.858;2023-04-06T02:43:40;100476.16;;;2.44;94.60
34674;BME280;20879;55.668;37.858;2023-04-06T02:46:27;100468.56;;;2.46;94.46
34674;BME280;20879;55.668;37.858;2023-04-06T02:48:56;100472.53;;;2.36;94.67
34674;BME280;20879;55.668;37.858;2023-04-06T02:51:34;100489.81;;;2.45;94.45
34674;BME280;20879;55.668;37.858;2023-04-06T02:54:17;100477.97;;;2.49;94.44
34674;BME280;20879;55.668;37.858;2023-04-06T02:56:47;100472.69;;;2.42;94.23
34674;BME280;20879;55.668;37.858;2023-04-06T02:59:19;100480.41;;;2.44;93.94
34674;BME280;20879;55.668;37.858;2023-04-06T03:02:03;100477.72;;;2.39;94.04
34674;BME280;20879;55.668;37.858;2023-04-06T03:04:38;100513.06;;;2.53;93.59
34674;BME280;20879;55.668;37.858;2023-04-06T03:07:18;100494.59;;;2.63;93.26
34674;BME280;20879;55.668;37.858;2023-04-06T03:09:48;100476.63;;;2.60;92.79
34674;BME280;20879;55.668;37.858;2023-04-06T03:12:33;100485.31;;;2.65;92.90
34674;BME280;20879;55.668;37.858;2023-04-06T03:15:22;100509.91;;;2.61;92.85
34674;BME280;20879;55.668;37.858;2023-04-06T03:18:06;100424.59;;;2.29;93.17
34674;BME280;20879;55.668;37.858;2023-04-06T03:20:47;100474.09;;;2.61;92.89
34674;BME280;20879;55.668;37.858;2023-04-06T03:23:19;100488.84;;;2.70;92.53
34674;BME280;20879;55.668;37.858;2023-04-06T03:25:54;100521.19;;;2.68;92.25
34674;BME280;20879;55.668;37.858;2023-04-06T03:28:23;100504.28;;;2.73;91.92
34674;BME280;20879;55.668;37.858;2023-04-06T03:30:58;100481.22;;;2.43;92.21
34674;BME280;20879;55.668;37.858;2023-04-06T03:33:45;100474.47;;;2.45;92.03
34674;BME280;20879;55.668;37.858;2023-04-06T03:36:34;100502.63;;;2.74;91.42
34674;BME280;20879;55.668;37.858;2023-04-06T03:39:05;100522.22;;;2.75;91.34
34674;BME280;20879;55.668;37.858;2023-04-06T03:41:39;100517.72;;;2.66;91.72
34674;BME280;20879;55.668;37.858;2023-04-06T03:44:30;100520.44;;;2.72;91.70
34674;BME280;20879;55.668;37.858;2023-04-06T03:47:09;100507.84;;;2.78;91.38
34674;BME280;20879;55.668;37.858;2023-04-06T03:49:51;100536.00;;;2.78;91.02
34674;BME280;20879;55.668;37.858;2023-04-06T03:52:21;100470.13;;;2.42;90.75
34674;BME280;20879;55.668;37.858;2023-04-06T03:54:58;100526.63;;;2.79;91.69
34674;BME280;20879;55.668;37.858;2023-04-06T03:57:29;100518.91;;;2.77;90.90
34674;BME280;20879;55.668;37.858;2023-04-06T03:59:58;100524.16;;;2.82;91.07
34674;BME280;20879;55.668;37.858;2023-04-06T04:02:30;100531.78;;;2.80;90.39
34674;BME280;20879;55.668;37.858;2023-04-06T04:04:59;100525.38;;;2.95;89.78
34674;BME280;20879;55.668;37.858;2023-04-06T04:07:34;100545.06;;;2.97;90.12
34674;BME280;20879;55.668;37.858;2023-04-06T04:10:06;100529.53;;;2.91;89.55
34674;BME280;20879;55.668;37.858;2023-04-06T04:12:40;100546.53;;;3.20;89.22
34674;BME280;20879;55.668;37.858;2023-04-06T04:15:10;100555.03;;;3.19;88.66
34674;BME280;20879;55.668;37.858;2023-04-06T04:17:41;100554.38;;;3.26;88.80
34674;BME280;20879;55.668;37.858;2023-04-06T04:20:18;100540.94;;;3.33;87.86
34674;BME280;20879;55.668;37.858;2023-04-06T04:22:49;100542.84;;;3.40;87.68
34674;BME280;20879;55.668;37.858;2023-04-06T04:25:18;100549.91;;;3.49;87.17
34674;BME280;20879;55.668;37.858;2023-04-06T04:27:49;100550.13;;;3.58;86.58
34674;BME280;20879;55.668;37.858;2023-04-06T04:30:25;100559.75;;;3.67;85.95
34674;BME280;20879;55.668;37.858;2023-04-06T04:32:57;100538.56;;;3.73;85.68
34674;BME280;20879;55.668;37.858;2023-04-06T04:35:31;100550.75;;;3.81;85.48
34674;BME280;20879;55.668;37.858;2023-04-06T04:38:01;100542.34;;;3.87;84.56
34674;BME280;20879;55.668;37.858;2023-04-06T04:40:31;100540.69;;;3.89;84.00
34674;BME280;20879;55.668;37.858;2023-04-06T04:43:07;100557.06;;;3.94;84.04
34674;BME280;20879;55.668;37.858;2023-04-06T04:45:42;100529.31;;;3.78;83.21
34674;BME280;20879;55.668;37.858;2023-04-06T04:48:36;100555.56;;;4.04;82.96
34674;BME280;20879;55.668;37.858;2023-04-06T04:51:08;100552.25;;;4.08;82.80
34674;BME280;20879;55.668;37.858;2023-04-06T04:54:06;100529.22;;;4.10;81.72
34674;BME280;20879;55.668;37.858;2023-04-06T04:56:36;100559.28;;;4.15;81.79
34674;BME280;20879;55.668;37.858;2023-04-06T04:59:35;100541.88;;;4.02;81.84
34674;BME280;20879;55.668;37.858;2023-04-06T05:02:21;100552.31;;;4.11;81.51
34674;BME280;20879;55.668;37.858;2023-04-06T05:05:16;100546.91;;;3.99;82.22
34674;BME280;20879;55.668;37.858;2023-04-06T05:07:46;100526.19;;;3.90;81.85
34674;BME280;20879;55.668;37.858;2023-04-06T05:10:28;100517.69;;;3.92;81.88
34674;BME280;20879;55.668;37.858;2023-04-06T05:13:01;100495.19;;;3.80;81.98
34674;BME280;20879;55.668;37.858;2023-04-06T05:15:31;100497.84;;;3.83;80.80
34674;BME280;20879;55.668;37.858;2023-04-06T05:18:19;100543.81;;;4.12;81.30
34674;BME280;20879;55.668;37.858;2023-04-06T05:20:51;100555.13;;;4.20;81.17
34674;BME280;20879;55.668;37.858;2023-04-06T05:23:45;100509.81;;;3.84;81.19
34674;BME280;20879;55.668;37.858;2023-04-06T05:26:15;100500.97;;;4.07;80.93
34674;BME280;20879;55.668;37.858;2023-04-06T05:29:06;100554.59;;;4.34;80.50
34674;BME280;20879;55.668;37.858;2023-04-06T05:31:37;100516.88;;;4.30;80.24
34674;BME280;20879;55.668;37.858;2023-04-06T05:34:13;100561.59;;;4.41;80.05
34674;BME280;20879;55.668;37.858;2023-04-06T05:36:44;100525.44;;;4.30;80.21
34674;BME280;20879;55.668;37.858;2023-04-06T05:39:20;100540.66;;;4.23;80.20
34674;BME280;20879;55.668;37.858;2023-04-06T05:41:52;100549.00;;;4.52;79.68
34674;BME280;20879;55.668;37.858;2023-04-06T05:44:28;100538.75;;;4.52;79.07
34674;BME280;20879;55.668;37.858;2023-04-06T05:47:08;100547.41;;;4.55;79.00
34674;BME280;20879;55.668;37.858;2023-04-06T05:49:46;100562.16;;;4.66;78.88
34674;BME280;20879;55.668;37.858;2023-04-06T05:52:33;100558.63;;;5.00;78.20
34674;BME280;20879;55.668;37.858;2023-04-06T05:55:03;100555.22;;;5.01;77.57
34674;BME280;20879;55.668;37.858;2023-04-06T05:57:35;100557.00;;;5.04;77.33
34674;BME280;20879;55.668;37.858;2023-04-06T06:00:06;100549.47;;;5.13;76.68
34674;BME280;20879;55.668;37.858;2023-04-06T06:02:51;100568.34;;;5.15;76.66
34674;BME280;20879;55.668;37.858;2023-04-06T06:05:25;100566.69;;;5.17;76.91
34674;BME280;20879;55.668;37.858;2023-04-06T06:08:21;100541.84;;;5.18;76.11
34674;BME280;20879;55.668;37.858;2023-04-06T06:10:51;100546.19;;;5.20;75.74
34674;BME280;20879;55.668;37.858;2023-04-06T06:13:26;100525.50;;;5.11;75.38
34674;BME280;20879;55.668;37.858;2023-04-06T06:15:58;100564.38;;;5.31;75.63
34674;BME280;20879;55.668;37.858;2023-04-06T06:18:39;100565.50;;;5.44;75.01
34674;BME280;20879;55.668;37.858;2023-04-06T06:21:22;100487.91;;;5.16;74.70
34674;BME280;20879;55.668;37.858;2023-04-06T06:24:08;100541.03;;;5.65;74.63
34674;BME280;20879;55.668;37.858;2023-04-06T06:27:05;100529.81;;;5.59;74.20
34674;BME280;20879;55.668;37.858;2023-04-06T06:29:41;100517.84;;;5.62;74.41
34674;BME280;20879;55.668;37.858;2023-04-06T06:32:10;100542.84;;;5.70;73.90
34674;BME280;20879;55.668;37.858;2023-04-06T06:34:41;100543.13;;;5.86;73.19
34674;BME280;20879;55.668;37.858;2023-04-06T06:37:10;100528.63;;;5.91;73.04
34674;BME280;20879;55.668;37.858;2023-04-06T06:39:42;100521.06;;;5.97;72.11
34674;BME280;20879;55.668;37.858;2023-04-06T06:42:12;100493.66;;;5.98;72.13
34674;BME280;20879;55.668;37.858;2023-04-06T06:44:54;100523.38;;;5.83;72.76
34674;BME280;20879;55.668;37.858;2023-04-06T06:47:24;100474.50;;;5.80;72.08
34674;BME280;20879;55.668;37.858;2023-04-06T06:49:53;100497.03;;;5.97;71.51
34674;BME280;20879;55.668;37.858;2023-04-06T06:52:29;100497.38;;;6.17;71.72
34674;BME280;20879;55.668;37.858;2023-04-06T06:55:06;100514.78;;;6.35;71.46
34674;BME280;20879;55.668;37.858;2023-04-06T06:57:53;100550.19;;;6.51;71.39
34674;BME280;20879;55.668;37.858;2023-04-06T07:00:23;100551.16;;;6.58;70.50
34674;BME280;20879;55.668;37.858;2023-04-06T07:02:53;100530.72;;;6.69;70.41
34674;BME280;20879;55.668;37.858;2023-04-06T07:05:28;100513.53;;;6.68;69.54
34674;BME280;20879;55.668;37.858;2023-04-06T07:08:12;100527.38;;;6.76;69.70
34674;BME280;20879;55.668;37.858;2023-04-06T07:10:43;100520.69;;;6.90;69.54
34674;BME280;20879;55.668;37.858;2023-04-06T07:13:18;100519.91;;;6.94;68.78
34674;BME280;20879;55.668;37.858;2023-04-06T07:15:56;100528.66;;;7.09;68.68
34674;BME280;20879;55.668;37.858;2023-04-06T07:18:31;100538.28;;;7.25;68.37
34674;BME280;20879;55.668;37.858;2023-04-06T07:21:04;100533.31;;;7.42;67.48
34674;BME280;20879;55.668;37.858;2023-04-06T07:23:34;100513.50;;;7.35;66.47
34674;BME280;20879;55.668;37.858;2023-04-06T07:26:14;100502.50;;;7.50;66.48
34674;BME280;20879;55.668;37.858;2023-04-06T07:28:43;100544.72;;;7.64;66.53
34674;BME280;20879;55.668;37.858;2023-04-06T07:31:13;100493.03;;;7.50;65.72
34674;BME280;20879;55.668;37.858;2023-04-06T07:33:43;100522.50;;;7.80;65.12
34674;BME280;20879;55.668;37.858;2023-04-06T07:36:13;100522.59;;;7.86;64.92
34674;BME280;20879;55.668;37.858;2023-04-06T07:38:43;100544.13;;;7.93;64.74
34674;BME280;20879;55.668;37.858;2023-04-06T07:41:15;100502.75;;;7.79;64.21
34674;BME280;20879;55.668;37.858;2023-04-06T07:43:45;100525.38;;;8.11;63.99
34674;BME280;20879;55.668;37.858;2023-04-06T07:46:15;100458.94;;;7.81;63.69
34674;BME280;20879;55.668;37.858;2023-04-06T07:48:44;100553.03;;;8.32;63.53
34674;BME280;20879;55.668;37.858;2023-04-06T07:51:20;100535.09;;;8.46;63.11
34674;BME280;20879;55.668;37.858;2023-04-06T07:53:50;100549.84;;;8.60;61.94
34674;BME280;20879;55.668;37.858;2023-04-06T07:56:21;100529.19;;;8.64;60.68
34674;BME280;20879;55.668;37.858;2023-04-06T07:58:51;100542.13;;;8.64;60.43
34674;BME280;20879;55.668;37.858;2023-04-06T08:01:22;100542.97;;;8.68;60.82
34674;BME280;20879;55.668;37.858;2023-04-06T08:04:00;100541.34;;;8.84;60.54
34674;BME280;20879;55.668;37.858;2023-04-06T08:06:38;100531.91;;;8.86;60.04
34674;BME280;20879;55.668;37.858;2023-04-06T08:09:14;100538.84;;;8.95;59.59
34674;BME280;20879;55.668;37.858;2023-04-06T08:11:45;100537.13;;;9.06;59.93
34674;BME280;20879;55.668;37.858;2023-04-06T08:14:15;100521.63;;;8.97;59.09
34674;BME280;20879;55.668;37.858;2023-04-06T08:16:45;100532.91;;;9.20;59.10
34674;BME280;20879;55.668;37.858;2023-04-06T08:19:19;100531.19;;;9.22;59.05
34674;BME280;20879;55.668;37.858;2023-04-06T08:21:49;100531.22;;;9.30;58.75
34674;BME280;20879;55.668;37.858;2023-04-06T08:24:18;100526.88;;;9.18;58.79
34674;BME280;20879;55.668;37.858;2023-04-06T08:26:50;100521.75;;;9.37;58.20
34674;BME280;20879;55.668;37.858;2023-04-06T08:29:20;100531.22;;;9.39;57.70
34674;BME280;20879;55.668;37.858;2023-04-06T08:31:56;100550.22;;;9.49;58.14
34674;BME280;20879;55.668;37.858;2023-04-06T08:34:25;100528.69;;;9.52;57.72
34674;BME280;20879;55.668;37.858;2023-04-06T08:36:55;100526.13;;;9.61;57.62
34674;BME280;20879;55.668;37.858;2023-04-06T08:39:35;100539.03;;;9.69;57.16
34674;BME280;20879;55.668;37.858;2023-04-06T08:42:25;100536.47;;;9.72;56.89
34674;BME280;20879;55.668;37.858;2023-04-06T08:44:55;100523.53;;;9.72;56.14
34674;BME280;20879;55.668;37.858;2023-04-06T08:47:29;100526.13;;;9.69;56.38
34674;BME280;20879;55.668;37.858;2023-04-06T08:50:02;100522.69;;;9.82;56.21
34674;BME280;20879;55.668;37.858;2023-04-06T08:52:32;100522.69;;;9.96;55.99
34674;BME280;20879;55.668;37.858;2023-04-06T08:55:02;100525.28;;;9.99;54.89
34674;BME280;20879;55.668;37.858;2023-04-06T08:57:35;100530.44;;;9.84;55.46
34674;BME280;20879;55.668;37.858;2023-04-06T09:00:10;100520.09;;;9.77;55.31
34674;BME280;20879;55.668;37.858;2023-04-06T09:02:43;100507.16;;;9.73;55.58
34674;BME280;20879;55.668;37.858;2023-04-06T09:05:18;100505.44;;;9.72;55.27
34674;BME280;20879;55.668;37.858;2023-04-06T09:07:54;100499.41;;;9.84;54.94
34674;BME280;20879;55.668;37.858;2023-04-06T09:10:28;100495.94;;;9.97;54.81
34674;BME280;20879;55.668;37.858;2023-04-06T09:13:05;100495.94;;;10.15;54.43
34674;BME280;20879;55.668;37.858;2023-04-06T09:15:35;100489.06;;;10.02;53.72
34674;BME280;20879;55.668;37.858;2023-04-06T09:18:04;100517.50;;;10.24;53.96
34674;BME280;20879;55.668;37.858;2023-04-06T09:20:35;100511.47;;;10.28;54.22
34674;BME280;20879;55.668;37.858;2023-04-06T09:23:05;100504.56;;;10.13;54.33
34674;BME280;20879;55.668;37.858;2023-04-06T09:25:40;100499.38;;;10.16;54.35
34674;BME280;20879;55.668;37.858;2023-04-06T09:28:24;100487.31;;;10.41;53.89
34674;BME280;20879;55.668;37.858;2023-04-06T09:31:01;100509.72;;;10.42;53.71
34674;BME280;20879;55.668;37.858;2023-04-06T09:33:30;100523.53;;;10.47;53.23
34674;BME280;20879;55.668;37.858;2023-04-06T09:36:00;100498.50;;;10.45;53.21
34674;BME280;20879;55.668;37.858;2023-04-06T09:38:30;100499.41;;;10.36;53.52
34674;BME280;20879;55.668;37.858;2023-04-06T09:40:59;100520.91;;;10.58;53.44
34674;BME280;20879;55.668;37.858;2023-04-06T09:43:36;100513.16;;;10.60;52.81
34674;BME280;20879;55.668;37.858;2023-04-06T09:46:10;100498.44;;;10.76;52.80
34674;BME280;20879;55.668;37.858;2023-04-06T09:48:46;100481.22;;;10.61;51.80
34674;BME280;20879;55.668;37.858;2023-04-06T09:51:19;100497.59;;;10.72;52.44
34674;BME280;20879;55.668;37.858;2023-04-06T09:53:52;100457.00;;;10.73;51.15
34674;BME280;20879;55.668;37.858;2023-04-06T09:56:28;100479.41;;;10.83;50.83
34674;BME280;20879;55.668;37.858;2023-04-06T09:59:07;100496.63;;;10.95;50.92
34674;BME280;20879;55.668;37.858;2023-04-06T10:01:39;100487.13;;;10.97;51.10
34674;BME280;20879;55.668;37.858;2023-04-06T10:04:23;100497.47;;;11.01;51.02
34674;BME280;20879;55.668;37.858;2023-04-06T10:06:55;100456.03;;;10.98;50.36
34674;BME280;20879;55.668;37.858;2023-04-06T10:09:27;100487.03;;;11.12;49.59
34674;BME280;20879;55.668;37.858;2023-04-06T10:12:10;100495.72;;;11.02;49.48
34674;BME280;20879;55.668;37.858;2023-04-06T10:14:56;100480.09;;;11.24;49.08
34674;BME280;20879;55.668;37.858;2023-04-06T10:17:38;100488.69;;;11.26;49.27
34674;BME280;20879;55.668;37.858;2023-04-06T10:20:10;100496.47;;;11.33;49.00
34674;BME280;20879;55.668;37.858;2023-04-06T10:22:44;100492.16;;;11.28;48.35
34674;BME280;20879;55.668;37.858;2023-04-06T10:25:34;100474.81;;;11.34;47.92
34674;BME280;20879;55.668;37.858;2023-04-06T10:28:11;100462.72;;;11.38;47.46
34674;BME280;20879;55.668;37.858;2023-04-06T10:30:43;100472.13;;;11.50;46.83
34674;BME280;20879;55.668;37.858;2023-04-06T10:33:17;100485.09;;;11.53;46.48
34674;BME280;20879;55.668;37.858;2023-04-06T10:36:09;100436.56;;;11.66;46.20
34674;BME280;20879;55.668;37.858;2023-04-06T10:38:40;100497.03;;;11.74;46.09
34674;BME280;20879;55.668;37.858;2023-04-06T10:41:11;100498.75;;;11.77;45.89
34674;BME280;20879;55.668;37.858;2023-04-06T10:43:44;100484.91;;;11.79;45.58
34674;BME280;20879;55.668;37.858;2023-04-06T10:46:25;100475.31;;;11.84;45.55
34674;BME280;20879;55.668;37.858;2023-04-06T10:49:11;100390.88;;;11.51;45.21
34674;BME280;20879;55.668;37.858;2023-04-06T10:51:41;100498.78;;;11.72;45.49
34674;BME280;20879;55.668;37.858;2023-04-06T10:54:11;100461.59;;;11.73;44.96
34674;BME280;20879;55.668;37.858;2023-04-06T10:56:41;100464.06;;;11.85;44.71
34674;BME280;20879;55.668;37.858;2023-04-06T10:59:19;100442.47;;;11.85;44.02
34674;BME280;20879;55.668;37.858;2023-04-06T11:01:57;100471.03;;;11.82;44.55
34674;BME280;20879;55.668;37.858;2023-04-06T11:04:26;100446.88;;;11.74;44.09
34674;BME280;20879;55.668;37.858;2023-04-06T11:06:56;100490.09;;;11.79;44.56
34674;BME280;20879;55.668;37.858;2023-04-06T11:09:40;100464.09;;;11.82;44.35
34674;BME280;20879;55.668;37.858;2023-04-06T11:12:29;100461.56;;;11.76;44.59
34674;BME280;20879;55.668;37.858;2023-04-06T11:15:00;100457.00;;;12.06;43.86
34674;BME280;20879;55.668;37.858;2023-04-06T11:17:35;100445.06;;;11.86;43.47
34674;BME280;20879;55.668;37.858;2023-04-06T11:20:10;100481.25;;;12.02;43.55
34674;BME280;20879;55.668;37.858;2023-04-06T11:22:48;100429.34;;;12.03;43.83
34674;BME280;20879;55.668;37.858;2023-04-06T11:25:24;100435.47;;;11.99;43.75
34674;BME280;20879;55.668;37.858;2023-04-06T11:28:05;100457.88;;;12.08;43.76
34674;BME280;20879;55.668;37.858;2023-04-06T11:30:38;100485.50;;;12.15;43.47
34674;BME280;20879;55.668;37.858;2023-04-06T11:33:10;100431.19;;;11.91;42.82
34674;BME280;20879;55.668;37.858;2023-04-06T11:35:39;100460.41;;;12.14;43.23
34674;BME280;20879;55.668;37.858;2023-04-06T11:38:14;100462.09;;;12.18;43.07
34674;BME280;20879;55.668;37.858;2023-04-06T11:40:43;100439.41;;;12.36;42.92
34674;BME280;20879;55.668;37.858;2023-04-06T11:43:13;100462.91;;;12.22;42.78
34674;BME280;20879;55.668;37.858;2023-04-06T11:45:42;100440.41;;;12.24;43.11
34674;BME280;20879;55.668;37.858;2023-04-06T11:48:20;100432.50;;;12.33;42.83
34674;BME280;20879;55.668;37.858;2023-04-06T11:50:55;100450.78;;;12.26;43.39
34674;BME280;20879;55.668;37.858;2023-04-06T11:53:28;100442.13;;;12.23;43.46
34674;BME280;20879;55.668;37.858;2023-04-06T11:55:57;100434.53;;;12.03;43.42
34674;BME280;20879;55.668;37.858;2023-04-06T11:58:27;100446.41;;;12.29;42.61
34674;BME280;20879;55.668;37.858;2023-04-06T12:01:03;100431.84;;;12.14;43.02
34674;BME280;20879;55.668;37.858;2023-04-06T12:03:39;100423.97;;;12.20;43.21
34674;BME280;20879;55.668;37.858;2023-04-06T12:06:10;100464.44;;;12.40;43.52
34674;BME280;20879;55.668;37.858;2023-04-06T12:08:40;100448.19;;;12.22;43.24
34674;BME280;20879;55.668;37.858;2023-04-06T12:11:09;100452.50;;;12.23;43.28
34674;BME280;20879;55.668;37.858;2023-04-06T12:13:39;100393.00;;;12.06;43.10
34674;BME280;20879;55.668;37.858;2023-04-06T12:16:19;100396.25;;;12.22;43.23
34674;BME280;20879;55.668;37.858;2023-04-06T12:18:51;100460.25;;;12.27;43.38
34674;BME280;20879;55.668;37.858;2023-04-06T12:21:20;100441.25;;;12.26;42.97
34674;BME280;20879;55.668;37.858;2023-04-06T12:23:49;100449.91;;;12.23;43.40
34674;BME280;20879;55.668;37.858;2023-04-06T12:26:24;100453.34;;;12.29;43.58
34674;BME280;20879;55.668;37.858;2023-04-06T12:28:53;100444.66;;;12.28;43.52
34674;BME280;20879;55.668;37.858;2023-04-06T12:31:23;100422.19;;;12.29;43.23
34674;BME280;20879;55.668;37.858;2023-04-06T12:33:54;100462.69;;;12.45;42.62
34674;BME280;20879;55.668;37.858;2023-04-06T12:36:29;100422.09;;;12.35;43.06
34674;BME280;20879;55.668;37.858;2023-04-06T12:38:59;100438.75;;;12.17;43.45
34674;BME280;20879;55.668;37.858;2023-04-06T12:41:29;100425.78;;;12.15;43.53
34674;BME280;20879;55.668;37.858;2023-04-06T12:44:04;100436.00;;;12.31;43.60
34674;BME280;20879;55.668;37.858;2023-04-06T12:52:14;100411.09;;;12.13;44.09
34674;BME280;20879;55.668;37.858;2023-04-06T12:54:50;100439.66;;;12.11;43.50
34674;BME280;20879;55.668;37.858;2023-04-06T12:57:19;100430.25;;;12.01;43.28
34674;BME280;20879;55.668;37.858;2023-04-06T12:59:48;100449.91;;;12.23;43.09
34674;BME280;20879;55.668;37.858;2023-04-06T13:02:18;100420.56;;;12.18;43.55
34674;BME280;20879;55.668;37.858;2023-04-06T13:04:53;100409.38;;;12.12;43.53
34674;BME280;20879;55.668;37.858;2023-04-06T13:07:31;100427.47;;;12.18;43.50
34674;BME280;20879;55.668;37.858;2023-04-06T13:10:00;100416.09;;;12.28;43.36
34674;BME280;20879;55.668;37.858;2023-04-06T13:12:29;100439.50;;;12.27;43.38
34674;BME280;20879;55.668;37.858;2023-04-06T13:14:59;100426.63;;;12.16;43.88
34674;BME280;20879;55.668;37.858;2023-04-06T13:17:29;100442.94;;;12.29;44.29
34674;BME280;20879;55.668;37.858;2023-04-06T13:19:58;100410.25;;;12.09;43.51
34674;BME280;20879;55.668;37.858;2023-04-06T13:22:30;100422.25;;;12.19;43.62
34674;BME280;20879;55.668;37.858;2023-04-06T13:25:05;100426.53;;;12.23;43.67
34674;BME280;20879;55.668;37.858;2023-04-06T13:27:35;100421.50;;;12.11;43.72
34674;BME280;20879;55.668;37.858;2023-04-06T13:30:16;100435.19;;;12.26;43.80
34674;BME280;20879;55.668;37.858;2023-04-06T13:32:45;100379.28;;;11.91;44.16
34674;BME280;20879;55.668;37.858;2023-04-06T13:35:15;100415.25;;;12.28;43.87